createdAt,value
2018-12-27T00:00:52.763Z,23.67
2018-12-27T00:03:33.684Z,17.77
2018-12-27T00:06:14.026Z,22.67
2018-12-27T00:08:55.398Z,24.43
2018-12-27T00:11:38.814Z,17.37
2018-12-27T00:14:19.558Z,19.60
2018-12-27T00:17:00.318Z,21.10
2018-12-27T00:19:41.584Z,19.03
2018-12-27T00:22:22.123Z,18.73
2018-12-27T00:25:02.454Z,23.63
2018-12-27T00:27:43.178Z,20.93
2018-12-27T00:30:24.238Z,21.93
2018-12-27T00:33:04.564Z,17.90
2018-12-27T00:35:45.602Z,21.77
2018-12-27T00:38:26.612Z,17.93
2018-12-27T00:41:07.249Z,20.87
2018-12-27T00:43:47.920Z,18.17
2018-12-27T00:46:28.727Z,20.03
2018-12-27T00:49:09.864Z,19.20
2018-12-27T00:51:50.482Z,17.97
2018-12-27T00:54:31.302Z,19.63
2018-12-27T00:57:11.983Z,21.30
2018-12-27T00:59:52.718Z,19.13
2018-12-27T01:02:33.648Z,20.10
2018-12-27T01:05:14.162Z,18.93
2018-12-27T01:07:55.095Z,18.40
2018-12-27T01:10:34.282Z,26.67
2018-12-27T01:13:15.590Z,20.07
2018-12-27T01:15:56.462Z,16.97
2018-12-27T01:18:37.575Z,26.97
2018-12-27T01:21:18.362Z,18.57
2018-12-27T01:23:59.450Z,24.67
2018-12-27T01:26:40.411Z,20.83
2018-12-27T01:29:21.119Z,18.80
2018-12-27T01:32:02.006Z,17.27
2018-12-27T01:34:42.761Z,20.27
2018-12-27T01:37:23.545Z,22.53
2018-12-27T01:40:04.655Z,22.03
2018-12-27T01:42:45.202Z,20.07
2018-12-27T01:45:25.958Z,21.60
2018-12-27T01:48:06.999Z,18.33
2018-12-27T01:50:47.788Z,20.20
2018-12-27T01:53:28.647Z,20.63
2018-12-27T01:56:09.778Z,20.93
2018-12-27T01:58:50.709Z,21.80
2018-12-27T02:01:31.586Z,22.90
2018-12-27T02:04:12.459Z,20.60
2018-12-27T02:06:53.366Z,19.07
2018-12-27T02:09:34.005Z,21.77
2018-12-27T02:12:15.032Z,18.47
2018-12-27T02:14:55.731Z,19.63
2018-12-27T02:17:36.366Z,20.73
2018-12-27T02:20:16.858Z,20.60
2018-12-27T02:22:58.118Z,19.70
2018-12-27T02:25:38.574Z,20.43
2018-12-27T02:28:18.951Z,20.93
2018-12-27T02:30:59.916Z,20.77
2018-12-27T02:33:40.823Z,22.33
2018-12-27T02:36:21.602Z,19.30
2018-12-27T02:39:02.510Z,22.23
2018-12-27T02:41:43.246Z,19.57
2018-12-27T02:44:25.463Z,20.03
2018-12-27T02:47:05.926Z,17.60
2018-12-27T02:49:46.876Z,17.47
2018-12-27T02:52:27.557Z,18.57
2018-12-27T02:55:08.790Z,20.43
2018-12-27T02:57:49.126Z,20.33
2018-12-27T03:00:29.802Z,17.80
2018-12-27T03:03:10.414Z,20.97
2018-12-27T03:05:51.387Z,17.37
2018-12-27T03:08:32.435Z,15.83
2018-12-27T03:11:12.696Z,18.67
2018-12-27T03:13:53.779Z,20.37
2018-12-27T03:16:35.274Z,17.40
2018-12-27T03:19:15.633Z,16.67
2018-12-27T03:21:56.374Z,19.97
2018-12-27T03:24:37.362Z,15.63
2018-12-27T03:27:18.448Z,18.77
2018-12-27T03:29:59.393Z,17.33
2018-12-27T03:32:40.532Z,20.67
2018-12-27T03:35:21.031Z,19.77
2018-12-27T03:38:01.920Z,16.97
2018-12-27T03:40:42.306Z,18.93
2018-12-27T03:43:24.384Z,19.00
2018-12-27T03:46:04.787Z,19.40
2018-12-27T03:48:45.883Z,18.30
2018-12-27T03:51:26.961Z,20.27
2018-12-27T03:54:08.099Z,16.87
2018-12-27T03:56:48.738Z,17.63
2018-12-27T03:59:29.464Z,17.67
2018-12-27T04:02:10.014Z,20.90
2018-12-27T04:04:51.140Z,19.80
2018-12-27T04:07:31.590Z,18.60
2018-12-27T04:10:12.338Z,21.70
2018-12-27T04:12:53.204Z,20.53
2018-12-27T04:15:34.083Z,19.43
2018-12-27T04:18:14.693Z,20.30
2018-12-27T04:20:55.411Z,17.80
2018-12-27T04:23:36.382Z,21.93
2018-12-27T04:26:17.386Z,20.17
2018-12-27T04:28:58.362Z,19.00
2018-12-27T04:31:38.967Z,18.87
2018-12-27T04:34:19.613Z,18.93
2018-12-27T04:37:00.521Z,19.93
2018-12-27T04:39:43.230Z,20.60
2018-12-27T04:42:24.026Z,16.53
2018-12-27T04:45:04.801Z,16.63
2018-12-27T04:47:45.771Z,19.07
2018-12-27T04:50:26.705Z,19.57
2018-12-27T04:53:07.385Z,17.97
2018-12-27T04:55:48.563Z,19.10
2018-12-27T04:58:29.824Z,16.93
2018-12-27T05:01:10.414Z,20.33
2018-12-27T05:03:51.202Z,17.17
2018-12-27T05:06:32.061Z,19.00
2018-12-27T05:09:12.990Z,18.40
2018-12-27T05:11:54.024Z,20.10
2018-12-27T05:14:34.858Z,15.97
2018-12-27T05:17:15.596Z,16.47
2018-12-27T05:19:56.743Z,17.73
2018-12-27T05:22:37.918Z,19.50
2018-12-27T05:25:18.836Z,17.33
2018-12-27T05:27:59.534Z,19.13
2018-12-27T05:30:40.822Z,19.97
2018-12-27T05:33:21.867Z,18.20
2018-12-27T05:36:02.250Z,18.40
2018-12-27T05:38:42.905Z,17.80
2018-12-27T05:41:24.065Z,18.23
2018-12-27T05:44:03.113Z,19.13
2018-12-27T05:46:42.150Z,19.47
2018-12-27T05:49:30.109Z,20.80
2018-12-27T05:52:11.326Z,20.33
2018-12-27T05:54:51.642Z,30.63
2018-12-27T05:57:32.369Z,21.07
2018-12-27T06:00:13.110Z,22.33
2018-12-27T06:02:53.879Z,21.77
2018-12-27T06:05:34.474Z,20.80
2018-12-27T06:08:15.275Z,15.93
2018-12-27T06:10:56.010Z,20.03
2018-12-27T06:13:37.074Z,19.33
2018-12-27T06:16:16.134Z,20.37
2018-12-27T06:18:56.827Z,17.17
2018-12-27T06:21:37.682Z,18.60
2018-12-27T06:24:18.984Z,20.60
2018-12-27T06:26:59.640Z,19.77
2018-12-27T06:29:40.751Z,17.73
2018-12-27T06:32:21.247Z,19.17
2018-12-27T06:35:02.301Z,19.77
2018-12-27T06:37:43.119Z,20.30
2018-12-27T06:40:24.129Z,20.37
2018-12-27T06:43:04.716Z,20.60
2018-12-27T06:45:45.934Z,18.17
2018-12-27T06:48:26.354Z,20.10
2018-12-27T06:51:07.198Z,19.87
2018-12-27T06:53:48.357Z,19.13
2018-12-27T06:56:29.498Z,20.93
2018-12-27T06:59:10.114Z,19.70
2018-12-27T07:01:51.359Z,23.80
2018-12-27T07:04:31.646Z,19.30
2018-12-27T07:07:12.547Z,19.50
2018-12-27T07:09:53.030Z,17.57
2018-12-27T07:12:34.043Z,16.90
2018-12-27T07:15:15.271Z,19.17
2018-12-27T07:17:56.331Z,19.23
2018-12-27T07:20:36.924Z,21.47
2018-12-27T07:23:17.846Z,17.97
2018-12-27T07:25:58.231Z,19.60
2018-12-27T07:28:39.101Z,20.53
2018-12-27T07:31:19.874Z,22.57
2018-12-27T07:34:00.810Z,16.43
2018-12-27T07:36:41.592Z,22.63
2018-12-27T07:39:22.266Z,20.03
2018-12-27T07:42:02.688Z,18.97
2018-12-27T07:44:43.791Z,22.37
2018-12-27T07:47:24.326Z,19.83
2018-12-27T07:50:05.113Z,14.33
2018-12-27T07:52:45.953Z,20.67
2018-12-27T07:55:26.915Z,18.07
2018-12-27T07:58:07.279Z,16.10
2018-12-27T08:00:47.959Z,18.80
2018-12-27T08:03:28.974Z,18.70
2018-12-27T08:06:08.050Z,18.30
2018-12-27T08:08:56.118Z,23.87
2018-12-27T08:11:37.223Z,18.73
2018-12-27T08:14:18.099Z,17.30
2018-12-27T08:16:59.034Z,18.50
2018-12-27T08:19:39.859Z,21.03
2018-12-27T08:22:20.838Z,18.97
2018-12-27T08:25:01.770Z,20.13
2018-12-27T08:27:42.769Z,20.90
2018-12-27T08:30:23.818Z,19.43
2018-12-27T08:33:04.641Z,19.20
2018-12-27T08:35:45.773Z,21.20
2018-12-27T08:38:26.795Z,18.57
2018-12-27T08:41:07.550Z,17.77
2018-12-27T08:43:48.677Z,18.10
2018-12-27T08:46:29.168Z,17.63
2018-12-27T08:49:10.203Z,20.20
2018-12-27T08:51:50.942Z,19.60
2018-12-27T08:54:32.299Z,18.30
2018-12-27T08:57:12.922Z,19.17
2018-12-27T08:59:54.273Z,17.63
2018-12-27T09:02:34.848Z,17.57
2018-12-27T09:05:18.843Z,15.27
2018-12-27T09:07:57.378Z,29.27
2018-12-27T09:10:38.382Z,20.10
2018-12-27T09:13:18.970Z,33.77
2018-12-27T09:15:59.948Z,18.90
2018-12-27T09:18:40.633Z,15.97
2018-12-27T09:21:21.320Z,17.70
2018-12-27T09:24:02.253Z,18.40
2018-12-27T09:26:43.414Z,18.47
2018-12-27T09:29:24.465Z,20.10
2018-12-27T09:32:05.437Z,17.40
2018-12-27T09:34:46.128Z,19.47
2018-12-27T09:37:27.187Z,21.47
2018-12-27T09:40:08.149Z,15.77
2018-12-27T09:42:48.950Z,19.10
2018-12-27T09:45:29.872Z,19.73
2018-12-27T09:48:11.005Z,19.87
2018-12-27T09:50:52.106Z,19.17
2018-12-27T09:53:33.182Z,23.33
2018-12-27T09:56:14.058Z,16.70
2018-12-27T09:58:55.589Z,19.43
2018-12-27T10:01:36.274Z,19.90
2018-12-27T10:04:17.330Z,19.67
2018-12-27T10:06:57.844Z,22.17
2018-12-27T10:09:38.138Z,23.00
2018-12-27T10:12:20.179Z,19.30
2018-12-27T10:15:01.534Z,17.97
2018-12-27T10:17:40.570Z,17.13
2018-12-27T10:20:21.934Z,17.77
2018-12-27T10:23:03.182Z,22.93
2018-12-27T10:25:50.790Z,18.20
2018-12-27T10:28:32.048Z,19.50
2018-12-27T10:31:12.649Z,19.60
2018-12-27T10:33:53.507Z,20.60
2018-12-27T10:36:34.186Z,21.13
2018-12-27T10:39:15.070Z,18.57
2018-12-27T10:41:55.964Z,20.20
2018-12-27T10:44:36.578Z,21.57
2018-12-27T10:47:17.441Z,17.37
2018-12-27T10:49:57.942Z,17.40
2018-12-27T10:52:38.866Z,18.47
2018-12-27T10:55:19.472Z,15.50
2018-12-27T10:58:00.853Z,14.13
2018-12-27T11:00:41.900Z,16.93
2018-12-27T11:03:22.797Z,21.80
2018-12-27T11:06:03.286Z,19.83
2018-12-27T11:08:43.718Z,16.90
2018-12-27T11:11:24.502Z,15.90
2018-12-27T11:14:05.206Z,18.07
2018-12-27T11:16:46.182Z,17.93
2018-12-27T11:19:27.150Z,17.90
2018-12-27T11:22:08.183Z,19.10
2018-12-27T11:24:49.222Z,20.43
2018-12-27T11:27:29.733Z,22.23
2018-12-27T11:30:10.884Z,16.90
2018-12-27T11:32:51.965Z,19.30
2018-12-27T11:35:32.510Z,17.97
2018-12-27T11:38:13.146Z,21.43
2018-12-27T11:40:54.193Z,20.97
2018-12-27T11:43:34.974Z,20.80
2018-12-27T11:46:15.750Z,18.90
2018-12-27T11:48:56.722Z,17.80
2018-12-27T11:51:37.758Z,19.63
2018-12-27T11:54:18.549Z,17.07
2018-12-27T11:56:59.187Z,17.87
2018-12-27T11:59:40.181Z,18.80
2018-12-27T12:02:21.469Z,18.23
2018-12-27T12:05:02.020Z,18.67
2018-12-27T12:07:43.114Z,20.33
2018-12-27T12:10:24.083Z,17.10
2018-12-27T12:13:03.115Z,18.33
2018-12-27T12:15:51.074Z,15.80
2018-12-27T12:18:32.105Z,15.07
2018-12-27T12:21:12.586Z,18.67
2018-12-27T12:23:53.084Z,16.30
2018-12-27T12:26:34.014Z,14.77
2018-12-27T12:29:14.300Z,16.60
2018-12-27T12:31:55.166Z,15.90
2018-12-27T12:34:36.031Z,15.90
2018-12-27T12:37:16.511Z,20.20
2018-12-27T12:39:57.175Z,18.13
2018-12-27T12:42:38.010Z,18.23
2018-12-27T12:45:19.086Z,15.37
2018-12-27T12:48:00.541Z,15.57
2018-12-27T12:50:42.486Z,16.03
2018-12-27T12:53:23.749Z,18.20
2018-12-27T12:56:04.445Z,17.57
2018-12-27T12:58:45.095Z,18.13
2018-12-27T13:01:24.411Z,15.83
2018-12-27T13:04:12.374Z,15.10
2018-12-27T13:06:53.342Z,14.17
2018-12-27T13:09:34.289Z,17.70
2018-12-27T13:12:14.987Z,14.60
2018-12-27T13:14:53.974Z,15.00
2018-12-27T13:17:34.946Z,17.73
2018-12-27T13:20:15.987Z,16.77
2018-12-27T13:22:57.188Z,16.27
2018-12-27T13:25:37.795Z,19.53
2018-12-27T13:28:19.243Z,16.77
2018-12-27T13:30:59.992Z,19.63
2018-12-27T13:33:40.738Z,16.67
2018-12-27T13:36:25.339Z,19.10
2018-12-27T13:39:04.132Z,18.90
2018-12-27T13:41:44.471Z,23.73
2018-12-27T13:44:23.477Z,16.93
2018-12-27T13:47:11.738Z,16.40
2018-12-27T13:49:52.175Z,17.00
2018-12-27T13:52:33.282Z,17.63
2018-12-27T13:55:14.407Z,17.70
2018-12-27T13:57:55.658Z,18.53
2018-12-27T14:00:36.368Z,16.90
2018-12-27T14:03:17.186Z,17.60
2018-12-27T14:05:58.349Z,16.90
2018-12-27T14:08:39.023Z,20.97
2018-12-27T14:11:19.904Z,17.47
2018-12-27T14:14:00.625Z,16.00
2018-12-27T14:16:41.551Z,16.97
2018-12-27T14:19:22.482Z,18.47
2018-12-27T14:22:03.530Z,18.60
2018-12-27T14:24:44.446Z,15.70
2018-12-27T14:27:25.575Z,19.70
2018-12-27T14:30:06.122Z,19.73
2018-12-27T14:32:47.005Z,20.60
2018-12-27T14:35:27.997Z,21.60
2018-12-27T14:38:09.039Z,19.93
2018-12-27T14:40:49.902Z,22.30
2018-12-27T14:43:30.601Z,15.87
2018-12-27T14:46:11.715Z,16.97
2018-12-27T14:48:52.650Z,20.97
2018-12-27T14:51:34.120Z,17.03
2018-12-27T14:54:14.743Z,15.47
2018-12-27T14:56:55.459Z,16.57
2018-12-27T14:59:36.413Z,17.67
2018-12-27T15:02:17.285Z,16.80
2018-12-27T15:04:58.474Z,17.80
2018-12-27T15:07:38.930Z,18.67
2018-12-27T15:10:20.026Z,19.93
2018-12-27T15:13:00.873Z,17.07
2018-12-27T15:15:41.874Z,16.40
2018-12-27T15:18:22.829Z,20.80
2018-12-27T15:21:03.869Z,17.77
2018-12-27T15:23:44.825Z,19.20
2018-12-27T15:26:25.508Z,16.50
2018-12-27T15:29:06.238Z,19.57
2018-12-27T15:31:47.724Z,18.07
2018-12-27T15:34:28.210Z,19.60
2018-12-27T15:37:08.877Z,18.73
2018-12-27T15:39:49.641Z,16.03
2018-12-27T15:42:30.630Z,17.83
2018-12-27T15:45:11.142Z,19.67
2018-12-27T15:47:51.840Z,18.00
2018-12-27T15:50:33.271Z,19.73
2018-12-27T15:53:13.962Z,19.50
2018-12-27T15:55:54.492Z,28.17
2018-12-27T15:58:35.622Z,22.03
2018-12-27T16:01:16.270Z,15.80
2018-12-27T16:03:57.146Z,20.80
2018-12-27T16:06:38.270Z,22.30
2018-12-27T16:09:18.986Z,20.33
2018-12-27T16:12:00.123Z,18.60
2018-12-27T16:14:44.495Z,23.70
2018-12-27T16:17:24.067Z,18.57
2018-12-27T16:20:05.161Z,18.10
2018-12-27T16:22:46.002Z,19.13
2018-12-27T16:25:26.716Z,16.37
2018-12-27T16:28:07.942Z,18.53
2018-12-27T16:30:49.179Z,24.70
2018-12-27T16:33:29.575Z,21.83
2018-12-27T16:36:10.454Z,22.00
2018-12-27T16:38:51.254Z,16.20
2018-12-27T16:41:32.294Z,17.63
2018-12-27T16:44:13.022Z,19.73
2018-12-27T16:46:53.983Z,21.73
2018-12-27T16:49:34.324Z,19.97
2018-12-27T16:52:15.389Z,17.23
2018-12-27T16:54:56.538Z,19.63
2018-12-27T16:57:37.291Z,17.20
2018-12-27T17:00:17.726Z,19.10
2018-12-27T17:02:58.752Z,21.63
2018-12-27T17:05:39.798Z,17.00
2018-12-27T17:08:20.700Z,22.00
2018-12-27T17:11:01.606Z,23.27
2018-12-27T17:13:42.865Z,17.57
2018-12-27T17:16:23.471Z,23.47
2018-12-27T17:19:04.476Z,22.93
2018-12-27T17:21:45.320Z,22.17
2018-12-27T17:24:26.423Z,22.63
2018-12-27T17:27:07.106Z,22.53
2018-12-27T17:29:47.874Z,23.50
2018-12-27T17:32:28.717Z,21.63
2018-12-27T17:35:10.228Z,32.27
2018-12-27T17:37:50.875Z,29.85
2018-12-27T17:40:31.910Z,28.20
2018-12-27T17:43:12.876Z,19.13
2018-12-27T17:45:54.080Z,21.57
2018-12-27T17:48:35.774Z,24.63
2018-12-27T17:51:16.615Z,21.90
2018-12-27T17:53:57.382Z,22.60
2018-12-27T17:56:38.426Z,26.53
2018-12-27T17:59:19.255Z,26.80
2018-12-27T18:02:00.587Z,24.43
2018-12-27T18:04:41.274Z,26.90
2018-12-27T18:07:22.218Z,24.77
2018-12-27T18:10:02.872Z,26.60
2018-12-27T18:12:43.782Z,26.70
2018-12-27T18:15:24.822Z,29.60
2018-12-27T18:18:05.986Z,22.67
2018-12-27T18:20:46.650Z,24.23
2018-12-27T18:23:27.728Z,22.10
2018-12-27T18:26:08.720Z,24.93
2018-12-27T18:28:49.730Z,25.80
2018-12-27T18:31:30.239Z,27.80
2018-12-27T18:34:11.103Z,22.17
2018-12-27T18:36:51.914Z,22.07
2018-12-27T18:39:32.849Z,24.00
2018-12-27T18:42:13.521Z,22.87
2018-12-27T18:44:54.698Z,23.50
2018-12-27T18:47:35.353Z,23.67
2018-12-27T18:50:16.031Z,30.60
2018-12-27T18:52:56.986Z,30.53
2018-12-27T18:55:40.247Z,25.10
2018-12-27T18:58:20.847Z,26.20
2018-12-27T19:01:01.774Z,25.90
2018-12-27T19:03:42.551Z,26.77
2018-12-27T19:06:23.453Z,27.63
2018-12-27T19:09:04.554Z,25.90
2018-12-27T19:11:44.993Z,29.53
2018-12-27T19:14:24.038Z,25.53
2018-12-27T19:17:04.753Z,25.07
2018-12-27T19:19:45.126Z,26.67
2018-12-27T19:22:26.272Z,25.63
2018-12-27T19:25:06.990Z,28.10
2018-12-27T19:27:48.129Z,22.40
2018-12-27T19:30:28.654Z,22.57
2018-12-27T19:33:18.974Z,23.47
2018-12-27T19:35:59.442Z,26.77
2018-12-27T19:38:40.518Z,22.27
2018-12-27T19:44:03.507Z,26.57
2018-12-27T19:46:44.230Z,26.43
2018-12-27T19:49:25.772Z,28.97
2018-12-27T19:52:06.664Z,23.07
2018-12-27T19:54:47.918Z,22.37
2018-12-27T19:57:28.609Z,24.97
2018-12-27T20:00:10.098Z,26.87
2018-12-27T20:02:51.315Z,24.07
2018-12-27T20:05:32.663Z,26.67
2018-12-27T20:08:13.479Z,29.63
2018-12-27T20:10:54.334Z,24.07
2018-12-27T20:13:35.804Z,26.53
2018-12-27T20:16:16.322Z,30.63
2018-12-27T20:18:57.132Z,27.97
2018-12-27T20:21:38.167Z,29.90
2018-12-27T20:24:19.122Z,29.50
2018-12-27T20:27:00.563Z,34.47
2018-12-27T20:29:40.914Z,54.90
2018-12-27T20:32:21.362Z,53.67
2018-12-27T20:35:02.134Z,57.57
2018-12-27T20:37:43.434Z,64.00
2018-12-27T20:40:24.150Z,74.60
2018-12-27T20:43:06.478Z,66.27
2018-12-27T20:45:47.562Z,53.10
2018-12-27T20:48:29.923Z,45.37
2018-12-27T20:51:10.638Z,48.00
2018-12-27T20:53:51.424Z,38.43
2018-12-27T20:56:32.668Z,37.37
2018-12-27T20:59:14.150Z,36.27
2018-12-27T21:01:54.771Z,40.70
2018-12-27T21:04:35.877Z,33.13
2018-12-27T21:07:16.662Z,33.57
2018-12-27T21:09:57.313Z,39.30
2018-12-27T21:12:38.048Z,60.47
2018-12-27T21:15:23.426Z,60.33
2018-12-27T21:18:04.014Z,32.47
2018-12-27T21:20:44.355Z,28.87
2018-12-27T21:23:25.035Z,28.40
2018-12-27T21:26:05.810Z,23.20
2018-12-27T21:28:44.899Z,24.63
2018-12-27T21:31:25.557Z,27.07
2018-12-27T21:34:06.276Z,63.90
2018-12-27T21:36:46.870Z,54.40
2018-12-27T21:39:27.630Z,28.73
2018-12-27T21:42:08.982Z,23.70
2018-12-27T21:44:49.602Z,24.47
2018-12-27T21:50:11.929Z,42.27
2018-12-27T21:52:40.728Z,50.83
2018-12-27T21:55:09.903Z,51.13
2018-12-27T21:57:38.906Z,54.40
2018-12-27T22:00:08.389Z,46.17
2018-12-27T22:02:37.117Z,35.60
2018-12-27T22:05:06.205Z,29.43
2018-12-27T22:07:36.665Z,22.23
2018-12-27T22:10:06.433Z,22.43
2018-12-27T22:12:35.660Z,21.33
2018-12-27T22:15:04.581Z,20.63
2018-12-27T22:17:33.317Z,21.37
2018-12-27T22:20:02.511Z,28.33
2018-12-27T22:22:31.641Z,26.40
2018-12-27T22:25:00.358Z,25.67
2018-12-27T22:27:29.133Z,25.37
2018-12-27T22:29:57.858Z,30.30
2018-12-27T22:32:26.587Z,26.43
2018-12-27T22:34:55.653Z,25.40
2018-12-27T22:37:24.410Z,29.37
2018-12-27T22:39:53.301Z,28.53
2018-12-27T22:42:22.426Z,28.67
2018-12-27T22:44:51.201Z,24.90
2018-12-27T22:47:20.087Z,25.37
2018-12-27T22:49:49.097Z,27.17
2018-12-27T22:52:17.923Z,26.37
2018-12-27T22:54:46.622Z,26.30
2018-12-27T22:57:15.874Z,28.43
2018-12-27T22:59:44.633Z,23.77
2018-12-27T23:02:13.487Z,28.90
2018-12-27T23:04:42.557Z,30.00
2018-12-27T23:07:15.361Z,28.83
2018-12-27T23:09:44.085Z,32.60
2018-12-27T23:12:13.814Z,35.60
2018-12-27T23:14:44.073Z,29.13
2018-12-27T23:17:12.893Z,27.60
2018-12-27T23:19:42.706Z,23.37
2018-12-27T23:22:11.430Z,25.23
2018-12-27T23:24:41.241Z,29.83
2018-12-27T23:27:10.281Z,32.73
2018-12-27T23:29:38.987Z,29.93
2018-12-27T23:32:07.693Z,27.00
2018-12-27T23:34:36.923Z,28.00
2018-12-27T23:37:05.630Z,28.47
2018-12-27T23:39:34.406Z,24.73
2018-12-27T23:42:03.113Z,29.27
2018-12-27T23:44:31.836Z,30.63
2018-12-27T23:47:00.784Z,27.10
2018-12-27T23:49:29.520Z,24.37
2018-12-27T23:51:58.355Z,26.87
2018-12-27T23:54:27.062Z,26.30
2018-12-27T23:56:55.869Z,26.10
2018-12-27T23:59:28.501Z,22.70
